Time;durP1;ratioP1;P1;durP2;ratioP2;P2;SDS_P1;SDS_P2;PMS_P1;PMS_P2;Temp;Humidity;BMP_temperature;BMP_pressure;BME280_temperature;BME280_humidity;BME280_pressure;Samples;Min_cycle;Max_cycle;Signal;HPM_P1;HPM_P2
2022/12/20 00:02:08;;;;;;;0.70;0.70;;;;;;;;;;4932131;28;20577;-54
2022/12/20 00:04:34;;;;;;;0.90;0.90;;;;;;;;;;4957351;28;20942;-53
2022/12/20 00:07:00;;;;;;;0.70;0.70;;;;;;;;;;4949671;28;20423;-53
2022/12/20 00:09:25;;;;;;;0.63;0.63;;;;;;;;;;4968894;28;20431;-54
2022/12/20 00:11:51;;;;;;;0.80;0.80;;;;;;;;;;4948826;28;20479;-54
2022/12/20 00:14:17;;;;;;;0.80;0.80;;;;;;;;;;4954775;28;22048;-54
2022/12/20 00:16:43;;;;;;;0.70;0.70;;;;;;;;;;4951747;28;20482;-52
2022/12/20 00:19:09;;;;;;;0.70;0.70;;;;;;;;;;4948719;28;20838;-53
2022/12/20 00:21:35;;;;;;;0.70;0.70;;;;;;;;;;4925046;28;20470;-53
2022/12/20 00:24:01;;;;;;;0.70;0.70;;;;;;;;;;4972154;28;20931;-53
2022/12/20 00:26:28;;;;;;;0.70;0.70;;;;;;;;;;4959717;28;21111;-53
2022/12/20 00:28:55;;;;;;;0.90;0.90;;;;;;;;;;4948543;28;21630;-54
2022/12/20 00:31:21;;;;;;;0.80;0.80;;;;;;;;;;4961472;28;20436;-53
2022/12/20 00:33:48;;;;;;;0.85;0.85;;;;;;;;;;4967830;28;20455;-53
2022/12/20 00:36:14;;;;;;;0.75;0.75;;;;;;;;;;4971032;28;20907;-53
2022/12/20 00:38:40;;;;;;;0.77;0.77;;;;;;;;;;4969005;28;20420;-53
2022/12/20 00:41:07;;;;;;;0.90;0.90;;;;;;;;;;4974559;28;20404;-53
2022/12/20 00:43:33;;;;;;;0.80;0.80;;;;;;;;;;4950059;28;21088;-53
2022/12/20 00:45:58;;;;;;;0.80;0.80;;;;;;;;;;4948660;28;20480;-54
2022/12/20 00:48:24;;;;;;;0.70;0.70;;;;;;;;;;4994991;28;20914;-52
2022/12/20 00:50:50;;;;;;;0.60;0.60;;;;;;;;;;4970628;28;21254;-54
2022/12/20 00:53:16;;;;;;;0.70;0.70;;;;;;;;;;4954118;28;20849;-54
2022/12/20 00:55:43;;;;;;;0.70;0.70;;;;;;;;;;4939641;28;20411;-52
2022/12/20 00:58:09;;;;;;;0.73;0.73;;;;;;;;;;4902698;28;20427;-52
2022/12/20 01:00:35;;;;;;;0.80;0.80;;;;;;;;;;4961042;28;20462;-54
2022/12/20 01:03:01;;;;;;;0.70;0.70;;;;;;;;;;4949638;28;20421;-54
2022/12/20 01:05:27;;;;;;;0.70;0.70;;;;;;;;;;4965185;28;20530;-54
2022/12/20 01:07:53;;;;;;;0.70;0.70;;;;;;;;;;4942530;28;20602;-54
2022/12/20 01:10:18;;;;;;;0.70;0.70;;;;;;;;;;4959719;28;20435;-54
2022/12/20 01:12:44;;;;;;;0.80;0.80;;;;;;;;;;4963466;28;20870;-52
2022/12/20 01:15:11;;;;;;;0.80;0.80;;;;;;;;;;4972381;28;20436;-53
2022/12/20 01:17:36;;;;;;;0.80;0.80;;;;;;;;;;4954728;28;20410;-53
2022/12/20 01:20:03;;;;;;;0.80;0.80;;;;;;;;;;4937930;28;22387;-54
2022/12/20 01:22:29;;;;;;;0.70;0.70;;;;;;;;;;4946957;28;20914;-53
2022/12/20 01:24:55;;;;;;;0.70;0.70;;;;;;;;;;4934592;28;20919;-54
2022/12/20 01:27:21;;;;;;;0.70;0.70;;;;;;;;;;4945611;28;20499;-52
2022/12/20 01:29:47;;;;;;;0.70;0.70;;;;;;;;;;4959264;28;20434;-53
2022/12/20 01:32:13;;;;;;;0.70;0.70;;;;;;;;;;4946299;28;20420;-53
2022/12/20 01:34:39;;;;;;;0.70;0.70;;;;;;;;;;4972376;28;20433;-53
2022/12/20 01:37:05;;;;;;;0.70;0.70;;;;;;;;;;4955091;28;20459;-53
2022/12/20 01:39:31;;;;;;;0.70;0.70;;;;;;;;;;4941179;28;20507;-54
2022/12/20 01:41:57;;;;;;;0.63;0.63;;;;;;;;;;4969937;28;20426;-54
2022/12/20 01:44:23;;;;;;;0.70;0.70;;;;;;;;;;4958931;28;20424;-53
2022/12/20 01:46:49;;;;;;;0.80;0.80;;;;;;;;;;4954985;28;20426;-52
2022/12/20 01:49:28;;;;;;;0.70;0.70;;;;;;;;;;4981058;28;20534;-53
2022/12/20 01:52:07;;;;;;;0.70;0.70;;;;;;;;;;4938189;28;20832;-52
2022/12/20 01:54:33;;;;;;;0.70;0.70;;;;;;;;;;4964549;28;20449;-53
2022/12/20 01:57:03;;;;;;;0.80;0.80;;;;;;;;;;4977786;28;21067;-53
2022/12/20 01:59:29;;;;;;;0.70;0.70;;;;;;;;;;4957417;28;20421;-54
2022/12/20 02:01:58;;;;;;;0.80;0.80;;;;;;;;;;4946575;28;20929;-52
2022/12/20 02:04:24;;;;;;;0.70;0.70;;;;;;;;;;4957393;28;20552;-53
2022/12/20 02:06:50;;;;;;;0.70;0.70;;;;;;;;;;4960963;28;20441;-53
2022/12/20 02:09:16;;;;;;;0.70;0.70;;;;;;;;;;4932443;28;21192;-53
2022/12/20 02:12:02;;;;;;;0.73;0.73;;;;;;;;;;4959617;28;20978;-52
2022/12/20 02:14:31;;;;;;;0.80;0.80;;;;;;;;;;4933529;28;20516;-54
2022/12/20 02:16:58;;;;;;;0.70;0.70;;;;;;;;;;4944993;28;20428;-53
2022/12/20 02:19:29;;;;;;;0.70;0.70;;;;;;;;;;4947869;28;20426;-54
2022/12/20 02:22:04;;;;;;;0.77;0.77;;;;;;;;;;4909318;28;20418;-54
2022/12/20 02:24:35;;;;;;;0.80;0.80;;;;;;;;;;4955896;28;20449;-53
2022/12/20 02:27:24;;;;;;;0.82;0.82;;;;;;;;;;4941576;28;20433;-55
2022/12/20 02:30:09;;;;;;;0.75;0.75;;;;;;;;;;4914823;28;20983;-53
2022/12/20 02:32:40;;;;;;;0.70;0.70;;;;;;;;;;4947734;28;20427;-53
2022/12/20 02:35:07;;;;;;;0.80;0.80;;;;;;;;;;4972255;28;20430;-53
2022/12/20 02:37:33;;;;;;;0.70;0.70;;;;;;;;;;4960745;28;21016;-53
2022/12/20 02:39:59;;;;;;;0.70;0.70;;;;;;;;;;4949686;28;20410;-53
2022/12/20 02:42:25;;;;;;;0.70;0.70;;;;;;;;;;4971607;28;20438;-54
2022/12/20 02:47:39;;;;;;;0.80;0.80;;;;;;;;;;4939304;28;21496;-53
2022/12/20 02:50:06;;;;;;;0.75;0.75;;;;;;;;;;4921455;28;20445;-52
2022/12/20 02:52:32;;;;;;;0.70;0.70;;;;;;;;;;4952845;28;21039;-54
2022/12/20 02:54:58;;;;;;;0.80;0.80;;;;;;;;;;4935752;28;21581;-54
2022/12/20 02:57:43;;;;;;;0.80;0.80;;;;;;;;;;4945908;28;22317;-52
2022/12/20 03:00:16;;;;;;;0.90;0.90;;;;;;;;;;4952871;28;20515;-53
2022/12/20 03:05:28;;;;;;;0.70;0.70;;;;;;;;;;4956128;28;20534;-53
2022/12/20 03:07:54;;;;;;;0.80;0.80;;;;;;;;;;4952939;28;20951;-53
2022/12/20 03:10:20;;;;;;;0.70;0.70;;;;;;;;;;4935642;28;20509;-54
2022/12/20 03:12:46;;;;;;;0.70;0.70;;;;;;;;;;4938437;28;20413;-53
2022/12/20 03:15:12;;;;;;;0.70;0.70;;;;;;;;;;4964387;28;20431;-53
2022/12/20 03:17:38;;;;;;;0.70;0.70;;;;;;;;;;4952138;28;20487;-55
2022/12/20 03:20:05;;;;;;;0.70;0.70;;;;;;;;;;4927481;28;20516;-53
2022/12/20 03:22:31;;;;;;;0.70;0.70;;;;;;;;;;4938673;28;20816;-54
2022/12/20 03:24:57;;;;;;;0.70;0.70;;;;;;;;;;4917650;28;20426;-53
2022/12/20 03:27:24;;;;;;;0.88;0.88;;;;;;;;;;4928090;28;20995;-53
2022/12/20 03:29:50;;;;;;;0.80;0.80;;;;;;;;;;4973144;28;20938;-52
2022/12/20 03:32:16;;;;;;;0.70;0.70;;;;;;;;;;4955163;28;20424;-52
2022/12/20 03:34:43;;;;;;;0.70;0.70;;;;;;;;;;4949441;28;20430;-54
2022/12/20 03:37:09;;;;;;;0.70;0.70;;;;;;;;;;4945537;28;20476;-53
2022/12/20 03:39:35;;;;;;;0.70;0.70;;;;;;;;;;4954274;28;20416;-53
2022/12/20 03:42:01;;;;;;;0.70;0.70;;;;;;;;;;4968589;28;20428;-53
2022/12/20 03:44:27;;;;;;;0.70;0.70;;;;;;;;;;4949823;28;20485;-53
2022/12/20 03:46:53;;;;;;;0.80;0.80;;;;;;;;;;4958547;28;20507;-53
2022/12/20 03:49:19;;;;;;;0.70;0.70;;;;;;;;;;4937100;28;20504;-54
2022/12/20 03:51:44;;;;;;;0.65;0.65;;;;;;;;;;4966204;28;20404;-53
2022/12/20 03:54:10;;;;;;;0.70;0.70;;;;;;;;;;4950008;28;20438;-54
2022/12/20 03:56:36;;;;;;;0.70;0.70;;;;;;;;;;4964586;28;20416;-53
2022/12/20 03:59:03;;;;;;;0.70;0.70;;;;;;;;;;4967538;28;20435;-54
2022/12/20 04:01:29;;;;;;;0.70;0.70;;;;;;;;;;4965300;28;20905;-53
2022/12/20 04:03:55;;;;;;;0.70;0.70;;;;;;;;;;4966991;28;21184;-53
2022/12/20 04:06:21;;;;;;;0.80;0.80;;;;;;;;;;4957543;28;21273;-54
2022/12/20 04:08:47;;;;;;;0.70;0.70;;;;;;;;;;4950861;28;20432;-53
2022/12/20 04:11:16;;;;;;;0.70;0.70;;;;;;;;;;4942668;28;20433;-53
2022/12/20 04:13:43;;;;;;;0.70;0.70;;;;;;;;;;4955300;28;20427;-52
2022/12/20 04:16:09;;;;;;;0.80;0.80;;;;;;;;;;4961577;28;20420;-53
2022/12/20 04:18:35;;;;;;;0.70;0.70;;;;;;;;;;4954931;28;20938;-52
2022/12/20 04:21:01;;;;;;;0.70;0.70;;;;;;;;;;4961432;28;20441;-52
2022/12/20 04:23:27;;;;;;;0.65;0.65;;;;;;;;;;4947467;28;21340;-51
2022/12/20 04:25:53;;;;;;;0.70;0.70;;;;;;;;;;4922606;28;20474;-54
2022/12/20 04:28:19;;;;;;;0.70;0.70;;;;;;;;;;4946233;28;20963;-53
2022/12/20 04:30:45;;;;;;;0.70;0.70;;;;;;;;;;4948983;28;20425;-52
2022/12/20 04:33:11;;;;;;;0.75;0.75;;;;;;;;;;4942432;28;20424;-54
2022/12/20 04:35:37;;;;;;;0.70;0.70;;;;;;;;;;4940710;28;20440;-54
2022/12/20 04:38:03;;;;;;;0.70;0.70;;;;;;;;;;4952735;28;20411;-53
2022/12/20 04:40:29;;;;;;;0.70;0.70;;;;;;;;;;4955274;28;20430;-54
2022/12/20 04:42:55;;;;;;;0.70;0.70;;;;;;;;;;4963899;28;20460;-53
2022/12/20 04:45:21;;;;;;;0.77;0.77;;;;;;;;;;4924178;28;20426;-52
2022/12/20 04:47:47;;;;;;;0.80;0.80;;;;;;;;;;4930028;28;20415;-54
2022/12/20 04:50:13;;;;;;;0.80;0.80;;;;;;;;;;4938043;28;20446;-54
2022/12/20 04:55:23;;;;;;;0.70;0.70;;;;;;;;;;4928874;28;20574;-52
2022/12/20 04:57:49;;;;;;;0.70;0.70;;;;;;;;;;4953412;28;20431;-52
2022/12/20 05:00:16;;;;;;;0.70;0.70;;;;;;;;;;4934209;28;20427;-54
2022/12/20 05:02:42;;;;;;;0.70;0.70;;;;;;;;;;4931171;28;20412;-54
2022/12/20 05:05:08;;;;;;;0.70;0.70;;;;;;;;;;4947861;28;20434;-53
2022/12/20 05:07:33;;;;;;;0.70;0.70;;;;;;;;;;4948898;28;20447;-53
2022/12/20 05:09:59;;;;;;;0.80;0.80;;;;;;;;;;4955152;28;20440;-52
2022/12/20 05:12:25;;;;;;;0.70;0.70;;;;;;;;;;4953142;28;20434;-53
2022/12/20 05:14:51;;;;;;;0.80;0.80;;;;;;;;;;4939042;28;20419;-52
2022/12/20 05:17:17;;;;;;;0.80;0.80;;;;;;;;;;4947987;28;20437;-54
2022/12/20 05:19:43;;;;;;;0.73;0.73;;;;;;;;;;4945246;28;20424;-53
2022/12/20 05:27:39;;;;;;;0.70;0.70;;;;;;;;;;4936199;28;20461;-53
2022/12/20 05:30:05;;;;;;;0.65;0.65;;;;;;;;;;4928363;28;20427;-53
2022/12/20 05:32:31;;;;;;;0.70;0.70;;;;;;;;;;4908795;28;22427;-52
2022/12/20 05:34:57;;;;;;;0.70;0.70;;;;;;;;;;4938432;28;20416;-52
2022/12/20 05:37:23;;;;;;;0.90;0.90;;;;;;;;;;4937315;28;20670;-52
2022/12/20 05:39:49;;;;;;;0.80;0.80;;;;;;;;;;4902665;28;20501;-54
2022/12/20 05:42:15;;;;;;;0.80;0.80;;;;;;;;;;4923897;28;20509;-53
2022/12/20 05:44:41;;;;;;;0.90;0.90;;;;;;;;;;4928214;28;20483;-52
2022/12/20 05:47:07;;;;;;;0.73;0.73;;;;;;;;;;4954501;28;20417;-52
2022/12/20 05:49:33;;;;;;;0.80;0.80;;;;;;;;;;4955164;28;20461;-52
2022/12/20 05:52:00;;;;;;;0.88;0.88;;;;;;;;;;4923895;28;21372;-53
2022/12/20 05:54:26;;;;;;;0.80;0.80;;;;;;;;;;4957336;28;20985;-52
2022/12/20 05:56:52;;;;;;;0.80;0.80;;;;;;;;;;4959073;28;20589;-53
2022/12/20 05:59:18;;;;;;;0.68;0.68;;;;;;;;;;4953041;28;20800;-52
2022/12/20 06:01:44;;;;;;;0.70;0.70;;;;;;;;;;4963637;28;20418;-53
2022/12/20 06:04:09;;;;;;;0.82;0.82;;;;;;;;;;4968682;28;20443;-52
2022/12/20 06:06:35;;;;;;;0.70;0.70;;;;;;;;;;4954356;28;20453;-53
2022/12/20 06:09:01;;;;;;;0.75;0.75;;;;;;;;;;4955668;28;20480;-53
2022/12/20 06:11:27;;;;;;;0.70;0.70;;;;;;;;;;4955232;28;21475;-53
2022/12/20 06:13:53;;;;;;;0.77;0.77;;;;;;;;;;4928372;28;20477;-52
2022/12/20 06:16:21;;;;;;;0.70;0.70;;;;;;;;;;4960291;28;20791;-52
2022/12/20 06:18:47;;;;;;;0.70;0.70;;;;;;;;;;4952040;28;20955;-53
2022/12/20 06:21:13;;;;;;;0.70;0.70;;;;;;;;;;4940545;28;20447;-53
2022/12/20 06:23:39;;;;;;;0.70;0.70;;;;;;;;;;4978242;28;20450;-52
2022/12/20 06:26:08;;;;;;;0.73;0.73;;;;;;;;;;4960474;28;20419;-53
2022/12/20 06:28:34;;;;;;;0.80;0.80;;;;;;;;;;4954409;28;20422;-52
2022/12/20 06:31:00;;;;;;;0.70;0.70;;;;;;;;;;4938057;28;20774;-54
2022/12/20 06:33:25;;;;;;;0.70;0.70;;;;;;;;;;4944760;28;21752;-53
2022/12/20 06:35:51;;;;;;;0.70;0.70;;;;;;;;;;4926965;28;20415;-54
2022/12/20 06:38:17;;;;;;;0.70;0.70;;;;;;;;;;4923983;28;20412;-53
2022/12/20 06:40:43;;;;;;;0.70;0.70;;;;;;;;;;4939854;28;20542;-54
2022/12/20 06:43:09;;;;;;;0.80;0.80;;;;;;;;;;4927407;28;20505;-53
2022/12/20 06:45:35;;;;;;;0.70;0.70;;;;;;;;;;4938550;28;21391;-52
2022/12/20 06:48:01;;;;;;;0.70;0.70;;;;;;;;;;4944513;28;20461;-53
2022/12/20 06:50:27;;;;;;;0.90;0.90;;;;;;;;;;4961245;28;20429;-53
2022/12/20 06:52:53;;;;;;;0.70;0.70;;;;;;;;;;4948512;28;20838;-52
2022/12/20 06:55:19;;;;;;;0.70;0.70;;;;;;;;;;4943648;28;20410;-53
2022/12/20 06:57:45;;;;;;;0.70;0.70;;;;;;;;;;4962846;28;20434;-52
2022/12/20 07:00:12;;;;;;;0.70;0.70;;;;;;;;;;4966849;28;20940;-54
2022/12/20 07:02:38;;;;;;;0.70;0.70;;;;;;;;;;4943789;28;20468;-53
2022/12/20 07:05:04;;;;;;;0.70;0.70;;;;;;;;;;4931123;28;20456;-54
2022/12/20 07:07:30;;;;;;;0.70;0.70;;;;;;;;;;4962333;28;20463;-54
2022/12/20 07:09:56;;;;;;;0.80;0.80;;;;;;;;;;4921562;28;20436;-52
2022/12/20 07:12:22;;;;;;;0.90;0.90;;;;;;;;;;4953432;28;20409;-54
2022/12/20 07:14:48;;;;;;;0.90;0.90;;;;;;;;;;4950404;28;20522;-54
2022/12/20 07:17:14;;;;;;;0.80;0.80;;;;;;;;;;4947991;28;20416;-53
2022/12/20 07:19:40;;;;;;;0.70;0.70;;;;;;;;;;4932359;28;20754;-52
2022/12/20 07:22:06;;;;;;;0.70;0.70;;;;;;;;;;4960340;28;21870;-53
2022/12/20 07:24:32;;;;;;;0.70;0.70;;;;;;;;;;4947043;28;20408;-53
2022/12/20 07:26:58;;;;;;;0.70;0.70;;;;;;;;;;4948657;28;20445;-50
2022/12/20 07:29:24;;;;;;;0.70;0.70;;;;;;;;;;4977211;28;21006;-52
2022/12/20 07:31:51;;;;;;;0.70;0.70;;;;;;;;;;4953146;28;25552;-54
2022/12/20 07:34:17;;;;;;;0.77;0.77;;;;;;;;;;4953581;28;21127;-53
2022/12/20 07:36:43;;;;;;;0.70;0.70;;;;;;;;;;4936015;28;20843;-54
2022/12/20 07:39:09;;;;;;;0.77;0.77;;;;;;;;;;4958109;28;20415;-54
2022/12/20 07:41:35;;;;;;;0.68;0.68;;;;;;;;;;4944839;28;20433;-53
2022/12/20 07:44:01;;;;;;;0.90;0.90;;;;;;;;;;4949647;28;20973;-53
2022/12/20 07:46:27;;;;;;;0.80;0.80;;;;;;;;;;4945645;28;20544;-54
2022/12/20 07:48:53;;;;;;;0.90;0.90;;;;;;;;;;4954015;28;20800;-52
2022/12/20 07:51:26;;;;;;;0.80;0.80;;;;;;;;;;4966344;28;20484;-53
2022/12/20 07:53:54;;;;;;;0.90;0.90;;;;;;;;;;4949099;28;20429;-54
2022/12/20 07:56:20;;;;;;;0.90;0.90;;;;;;;;;;4975170;28;20906;-52
2022/12/20 07:58:46;;;;;;;0.80;0.80;;;;;;;;;;4960589;28;20465;-54
2022/12/20 08:01:12;;;;;;;0.80;0.80;;;;;;;;;;4951669;28;20827;-54
2022/12/20 08:03:43;;;;;;;0.80;0.80;;;;;;;;;;4951735;28;20429;-53
2022/12/20 08:06:09;;;;;;;0.80;0.80;;;;;;;;;;4985942;28;20418;-54
2022/12/20 08:08:35;;;;;;;0.80;0.80;;;;;;;;;;4972312;28;21173;-51
2022/12/20 08:11:02;;;;;;;0.82;0.82;;;;;;;;;;4957641;28;20455;-53
2022/12/20 08:13:28;;;;;;;0.80;0.80;;;;;;;;;;4959813;28;20431;-54
2022/12/20 08:15:54;;;;;;;0.80;0.80;;;;;;;;;;4945785;28;20820;-53
2022/12/20 08:18:20;;;;;;;0.88;0.88;;;;;;;;;;4951390;28;20423;-54
2022/12/20 08:20:46;;;;;;;0.80;0.80;;;;;;;;;;4981876;28;20431;-53
2022/12/20 08:23:12;;;;;;;0.90;0.90;;;;;;;;;;4956586;28;20502;-53
2022/12/20 08:25:38;;;;;;;0.70;0.70;;;;;;;;;;4959067;28;20867;-52
2022/12/20 08:28:04;;;;;;;0.70;0.70;;;;;;;;;;4969507;28;20542;-53
2022/12/20 08:30:30;;;;;;;0.90;0.90;;;;;;;;;;4955911;28;20419;-53
2022/12/20 08:32:56;;;;;;;0.90;0.90;;;;;;;;;;4937735;28;20530;-52
2022/12/20 08:35:22;;;;;;;0.70;0.70;;;;;;;;;;4959120;28;20425;-52
2022/12/20 08:37:51;;;;;;;0.80;0.80;;;;;;;;;;4960506;28;20472;-52
2022/12/20 08:40:17;;;;;;;0.80;0.80;;;;;;;;;;4959331;28;21026;-52
2022/12/20 08:42:43;;;;;;;0.80;0.80;;;;;;;;;;4987732;28;20418;-53
2022/12/20 08:45:09;;;;;;;0.87;0.87;;;;;;;;;;4972815;28;20956;-52
2022/12/20 08:47:35;;;;;;;1.00;1.00;;;;;;;;;;4979928;28;20432;-52
2022/12/20 08:50:02;;;;;;;0.80;0.80;;;;;;;;;;4973343;28;20462;-52
2022/12/20 08:52:28;;;;;;;0.70;0.70;;;;;;;;;;4945790;28;20423;-51
2022/12/20 08:54:54;;;;;;;0.90;0.90;;;;;;;;;;4970839;28;20875;-52
2022/12/20 08:57:20;;;;;;;0.90;0.90;;;;;;;;;;4976945;28;20422;-52
2022/12/20 08:59:46;;;;;;;0.90;0.90;;;;;;;;;;4982123;28;20419;-52
2022/12/20 09:02:12;;;;;;;0.90;0.90;;;;;;;;;;4981727;28;20428;-52
2022/12/20 09:04:38;;;;;;;0.80;0.80;;;;;;;;;;4969774;28;20484;-52
2022/12/20 09:07:04;;;;;;;0.70;0.70;;;;;;;;;;4975534;28;20800;-53
2022/12/20 09:09:30;;;;;;;0.70;0.70;;;;;;;;;;4974895;28;21415;-53
2022/12/20 09:11:56;;;;;;;0.70;0.70;;;;;;;;;;4992359;28;26348;-53
2022/12/20 09:14:22;;;;;;;0.80;0.80;;;;;;;;;;4975243;28;20905;-53
2022/12/20 09:16:48;;;;;;;0.80;0.80;;;;;;;;;;4984867;28;21038;-52
2022/12/20 09:19:14;;;;;;;0.90;0.90;;;;;;;;;;4992173;28;20421;-52
2022/12/20 09:21:40;;;;;;;0.77;0.77;;;;;;;;;;4997933;28;20519;-52
2022/12/20 09:24:06;;;;;;;0.80;0.80;;;;;;;;;;4989798;28;20417;-53
2022/12/20 09:26:34;;;;;;;0.80;0.80;;;;;;;;;;4973524;28;20423;-51
2022/12/20 09:29:00;;;;;;;0.88;0.88;;;;;;;;;;4963179;28;20428;-52
2022/12/20 09:31:26;;;;;;;0.70;0.70;;;;;;;;;;4960708;28;20419;-52
2022/12/20 09:33:53;;;;;;;0.80;0.80;;;;;;;;;;4964962;28;20492;-52
2022/12/20 09:36:19;;;;;;;0.80;0.80;;;;;;;;;;4987270;28;20427;-52
2022/12/20 09:38:45;;;;;;;0.80;0.80;;;;;;;;;;4981588;28;20850;-51
2022/12/20 09:41:24;;;;;;;0.80;0.80;;;;;;;;;;4964594;28;20426;-52
2022/12/20 09:43:50;;;;;;;0.70;0.70;;;;;;;;;;4961548;28;20422;-52
2022/12/20 09:46:16;;;;;;;0.70;0.70;;;;;;;;;;4964152;28;20537;-52
2022/12/20 09:48:42;;;;;;;0.80;0.80;;;;;;;;;;4958404;28;20909;-53
2022/12/20 09:51:21;;;;;;;0.70;0.70;;;;;;;;;;4950349;28;21238;-53
2022/12/20 09:53:50;;;;;;;0.80;0.80;;;;;;;;;;4974244;28;20438;-52
2022/12/20 09:56:36;;;;;;;0.70;0.70;;;;;;;;;;4975907;28;20433;-51
2022/12/20 09:59:03;;;;;;;0.70;0.70;;;;;;;;;;4973008;28;20436;-52
2022/12/20 10:01:30;;;;;;;0.70;0.70;;;;;;;;;;4987006;28;20989;-52
2022/12/20 10:03:56;;;;;;;0.77;0.77;;;;;;;;;;4956330;28;20428;-52
2022/12/20 10:06:22;;;;;;;0.80;0.80;;;;;;;;;;4979501;28;20414;-52
2022/12/20 10:09:01;;;;;;;0.70;0.70;;;;;;;;;;4966727;28;20466;-53
2022/12/20 10:11:49;;;;;;;0.80;0.80;;;;;;;;;;4955386;28;20474;-52
2022/12/20 10:14:25;;;;;;;1.00;1.00;;;;;;;;;;4922071;28;20559;-53
2022/12/20 10:17:14;;;;;;;1.40;1.40;;;;;;;;;;4931380;28;20810;-53
2022/12/20 10:20:02;;;;;;;1.80;1.70;;;;;;;;;;4949390;28;20973;-52
2022/12/20 10:22:37;;;;;;;1.60;1.60;;;;;;;;;;4956634;28;21057;-51
2022/12/20 10:25:15;;;;;;;1.50;1.50;;;;;;;;;;4947263;28;20452;-52
2022/12/20 10:27:42;;;;;;;1.50;1.50;;;;;;;;;;4933298;28;20435;-53
2022/12/20 10:30:14;;;;;;;1.40;1.40;;;;;;;;;;4921732;28;20437;-52
2022/12/20 10:32:42;;;;;;;1.60;1.60;;;;;;;;;;4934164;28;20420;-52
2022/12/20 10:35:11;;;;;;;1.60;1.60;;;;;;;;;;4920209;28;21077;-54
2022/12/20 10:37:37;;;;;;;1.98;1.88;;;;;;;;;;4947388;28;20436;-53
2022/12/20 10:40:03;;;;;;;1.80;1.70;;;;;;;;;;4959451;28;20435;-52
2022/12/20 10:42:39;;;;;;;1.60;1.60;;;;;;;;;;4960655;28;20430;-52
2022/12/20 10:45:25;;;;;;;0.90;0.90;;;;;;;;;;4944031;28;20426;-52
2022/12/20 10:47:51;;;;;;;1.00;1.00;;;;;;;;;;4947444;28;20425;-53
2022/12/20 10:50:19;;;;;;;0.90;0.90;;;;;;;;;;4935875;28;20481;-51
2022/12/20 10:52:45;;;;;;;1.00;1.00;;;;;;;;;;4960786;28;20423;-52
2022/12/20 10:55:37;;;;;;;1.00;1.00;;;;;;;;;;4971366;28;20432;-53
2022/12/20 10:58:22;;;;;;;2.00;1.90;;;;;;;;;;4943465;28;20798;-51
2022/12/20 11:00:48;;;;;;;2.20;2.10;;;;;;;;;;4945680;28;20424;-53
2022/12/20 11:03:21;;;;;;;2.20;2.10;;;;;;;;;;4930073;28;20410;-53
2022/12/20 11:05:55;;;;;;;1.00;1.00;;;;;;;;;;4949452;28;20440;-51
2022/12/20 11:08:23;;;;;;;1.00;1.00;;;;;;;;;;4953808;28;20431;-53
2022/12/20 11:10:49;;;;;;;0.90;0.90;;;;;;;;;;4952313;28;20442;-52
2022/12/20 11:13:28;;;;;;;1.10;1.10;;;;;;;;;;4959896;28;20453;-52
2022/12/20 11:15:55;;;;;;;0.90;0.90;;;;;;;;;;4932980;28;20471;-51
2022/12/20 11:18:21;;;;;;;1.00;1.00;;;;;;;;;;4943343;28;20953;-52
2022/12/20 11:20:51;;;;;;;0.90;0.90;;;;;;;;;;4959901;28;20432;-51
2022/12/20 11:23:36;;;;;;;0.95;0.95;;;;;;;;;;4950083;28;20424;-53
2022/12/20 11:26:07;;;;;;;0.90;0.90;;;;;;;;;;4973521;28;20453;-52
2022/12/20 11:28:51;;;;;;;0.90;0.90;;;;;;;;;;4949076;28;20585;-53
2022/12/20 11:31:17;;;;;;;1.00;1.00;;;;;;;;;;4929749;28;20437;-53
2022/12/20 11:33:55;;;;;;;0.80;0.80;;;;;;;;;;4960496;28;20968;-53
2022/12/20 11:36:46;;;;;;;0.90;0.90;;;;;;;;;;4938210;28;20804;-53
2022/12/20 11:39:32;;;;;;;0.90;0.90;;;;;;;;;;4961988;28;21567;-52
2022/12/20 11:42:04;;;;;;;0.97;0.97;;;;;;;;;;4948980;28;20432;-52
2022/12/20 11:44:30;;;;;;;0.98;0.98;;;;;;;;;;4977714;28;20434;-53
2022/12/20 11:47:03;;;;;;;1.10;1.10;;;;;;;;;;4984307;28;20422;-51
2022/12/20 11:49:29;;;;;;;0.98;0.98;;;;;;;;;;4957434;28;20506;-52
2022/12/20 11:51:58;;;;;;;0.90;0.90;;;;;;;;;;4965182;28;20429;-53
2022/12/20 11:54:27;;;;;;;1.00;1.00;;;;;;;;;;4954392;28;21490;-53
2022/12/20 11:56:55;;;;;;;1.05;1.05;;;;;;;;;;4953427;28;20426;-55
2022/12/20 11:59:28;;;;;;;0.80;0.80;;;;;;;;;;4968385;28;20415;-52
2022/12/20 12:02:00;;;;;;;0.80;0.80;;;;;;;;;;4960498;28;20881;-52
2022/12/20 12:04:26;;;;;;;0.80;0.80;;;;;;;;;;4968438;28;21908;-52
2022/12/20 12:06:55;;;;;;;0.80;0.80;;;;;;;;;;4970908;28;20432;-52
2022/12/20 12:09:25;;;;;;;0.70;0.70;;;;;;;;;;4985659;28;20436;-52
2022/12/20 12:12:02;;;;;;;0.90;0.90;;;;;;;;;;4979672;28;20914;-56
2022/12/20 12:14:29;;;;;;;0.70;0.70;;;;;;;;;;4988456;28;20867;-53
2022/12/20 12:16:57;;;;;;;0.70;0.70;;;;;;;;;;4990717;28;20481;-53
2022/12/20 12:19:23;;;;;;;0.80;0.80;;;;;;;;;;4990912;28;21091;-52
2022/12/20 12:21:50;;;;;;;0.80;0.80;;;;;;;;;;4972988;28;21178;-52
2022/12/20 12:24:24;;;;;;;0.70;0.70;;;;;;;;;;4967972;28;21095;-52
2022/12/20 12:26:50;;;;;;;0.70;0.70;;;;;;;;;;4955323;28;20522;-51
2022/12/20 12:29:16;;;;;;;0.80;0.80;;;;;;;;;;4976236;28;20435;-52
2022/12/20 12:31:44;;;;;;;0.90;0.90;;;;;;;;;;4970363;28;20417;-52
2022/12/20 12:34:14;;;;;;;0.90;0.90;;;;;;;;;;4964873;28;20995;-52
2022/12/20 12:36:59;;;;;;;0.73;0.73;;;;;;;;;;4965611;28;20519;-52
2022/12/20 12:39:30;;;;;;;0.70;0.70;;;;;;;;;;4983843;28;20442;-52
2022/12/20 12:42:02;;;;;;;0.80;0.80;;;;;;;;;;4950188;28;20491;-53
2022/12/20 12:44:48;;;;;;;0.90;0.90;;;;;;;;;;4962901;28;20426;-53
2022/12/20 12:47:22;;;;;;;0.80;0.80;;;;;;;;;;4955645;28;20757;-52
2022/12/20 12:49:48;;;;;;;1.00;1.00;;;;;;;;;;4965623;28;20446;-53
2022/12/20 12:52:37;;;;;;;0.90;0.90;;;;;;;;;;4965552;28;20420;-52
2022/12/20 12:55:03;;;;;;;0.80;0.80;;;;;;;;;;4971826;28;20766;-52
2022/12/20 12:57:29;;;;;;;0.80;0.80;;;;;;;;;;4959710;28;20830;-51
2022/12/20 12:59:56;;;;;;;0.80;0.80;;;;;;;;;;4951113;28;20555;-53
2022/12/20 13:02:23;;;;;;;0.90;0.90;;;;;;;;;;4986009;28;20479;-51
2022/12/20 13:05:11;;;;;;;0.80;0.80;;;;;;;;;;4950902;28;20441;-53
2022/12/20 13:07:42;;;;;;;0.90;0.90;;;;;;;;;;4953161;28;20774;-51
2022/12/20 13:10:08;;;;;;;0.80;0.80;;;;;;;;;;4959843;28;20503;-52
2022/12/20 13:12:37;;;;;;;0.90;0.90;;;;;;;;;;4972621;28;20866;-53
2022/12/20 13:15:21;;;;;;;0.80;0.80;;;;;;;;;;4986062;28;20426;-52
2022/12/20 13:18:20;;;;;;;0.80;0.80;;;;;;;;;;4967264;28;20420;-53
2022/12/20 13:21:06;;;;;;;0.80;0.80;;;;;;;;;;4935734;28;21320;-53
2022/12/20 13:23:31;;;;;;;0.80;0.80;;;;;;;;;;4993351;28;20451;-52
2022/12/20 13:25:57;;;;;;;0.80;0.80;;;;;;;;;;4972838;28;20420;-53
2022/12/20 13:28:23;;;;;;;0.80;0.80;;;;;;;;;;4975836;28;20426;-51
2022/12/20 13:30:52;;;;;;;0.80;0.80;;;;;;;;;;4966107;28;21411;-51
2022/12/20 13:33:42;;;;;;;1.60;1.60;;;;;;;;;;4986788;28;20426;-51
2022/12/20 13:36:10;;;;;;;1.88;1.77;;;;;;;;;;4977780;28;20440;-51
2022/12/20 13:38:45;;;;;;;1.80;1.70;;;;;;;;;;4976910;28;20450;-52
2022/12/20 13:41:20;;;;;;;1.90;1.80;;;;;;;;;;4979836;28;20794;-52
2022/12/20 13:43:46;;;;;;;1.63;1.63;;;;;;;;;;4970385;28;20635;-52
2022/12/20 13:46:13;;;;;;;1.80;1.70;;;;;;;;;;4964813;28;20447;-52
2022/12/20 13:48:39;;;;;;;2.00;1.90;;;;;;;;;;4977148;28;20433;-52
2022/12/20 13:51:06;;;;;;;2.00;1.90;;;;;;;;;;4975059;28;20937;-51
2022/12/20 13:53:32;;;;;;;2.10;2.00;;;;;;;;;;4980605;28;22295;-52
2022/12/20 13:55:58;;;;;;;1.83;1.73;;;;;;;;;;4975116;28;20416;-52
2022/12/20 13:58:25;;;;;;;2.10;2.00;;;;;;;;;;4988017;28;20463;-52
2022/12/20 14:00:51;;;;;;;2.10;2.00;;;;;;;;;;4950715;28;20522;-52
2022/12/20 14:03:19;;;;;;;1.90;1.80;;;;;;;;;;4965121;28;20899;-53
2022/12/20 14:05:45;;;;;;;2.10;2.00;;;;;;;;;;4997646;28;20438;-52
2022/12/20 14:08:15;;;;;;;1.80;1.70;;;;;;;;;;4970517;28;20729;-53
2022/12/20 14:10:41;;;;;;;2.05;1.95;;;;;;;;;;4958168;28;20428;-53
2022/12/20 14:13:17;;;;;;;1.88;1.77;;;;;;;;;;4986720;28;20429;-53
2022/12/20 14:15:43;;;;;;;1.80;1.70;;;;;;;;;;4959250;28;20425;-52
2022/12/20 14:18:16;;;;;;;2.00;1.90;;;;;;;;;;4983158;28;20437;-52
2022/12/20 14:20:42;;;;;;;1.90;1.80;;;;;;;;;;4966417;28;20415;-52
2022/12/20 14:23:12;;;;;;;1.90;1.80;;;;;;;;;;4966888;28;20420;-52
2022/12/20 14:25:41;;;;;;;2.30;2.20;;;;;;;;;;4957953;28;20458;-52
2022/12/20 14:28:12;;;;;;;2.25;2.15;;;;;;;;;;4987458;28;20416;-52
2022/12/20 14:30:41;;;;;;;2.33;2.23;;;;;;;;;;4973805;28;20968;-52
2022/12/20 14:33:17;;;;;;;2.15;2.05;;;;;;;;;;4988989;28;21161;-52
2022/12/20 14:35:49;;;;;;;2.40;2.30;;;;;;;;;;4987753;28;20420;-51
2022/12/20 14:38:22;;;;;;;2.40;2.30;;;;;;;;;;4963537;28;20439;-53
2022/12/20 14:40:48;;;;;;;2.53;2.42;;;;;;;;;;4956505;28;20424;-52
2022/12/20 14:43:15;;;;;;;2.60;2.50;;;;;;;;;;4958991;28;20422;-52
2022/12/20 14:45:41;;;;;;;2.60;2.50;;;;;;;;;;4972541;28;20972;-52
2022/12/20 14:48:14;;;;;;;2.50;2.40;;;;;;;;;;4963609;28;20942;-52
2022/12/20 14:50:40;;;;;;;2.50;2.40;;;;;;;;;;4959229;28;20944;-51
2022/12/20 14:53:29;;;;;;;2.60;2.50;;;;;;;;;;4968599;28;20425;-51
2022/12/20 14:55:55;;;;;;;3.00;2.90;;;;;;;;;;4974800;28;20825;-51
2022/12/20 14:58:23;;;;;;;2.40;2.30;;;;;;;;;;4961981;28;20438;-51
2022/12/20 15:00:59;;;;;;;2.10;2.00;;;;;;;;;;4958360;28;20421;-52
2022/12/20 15:03:25;;;;;;;2.40;2.30;;;;;;;;;;4981353;28;20821;-52
2022/12/20 15:05:55;;;;;;;2.33;2.22;;;;;;;;;;4962271;28;20418;-52